Time;durP1;ratioP1;P1;durP2;ratioP2;P2;SDS_P1;SDS_P2;PMS_P1;PMS_P2;Temp;Humidity;BMP_temperature;BMP_pressure;BME280_temperature;BME280_humidity;BME280_pressure;Samples;Min_cycle;Max_cycle;Signal;HPM_P1;HPM_P2
2023/05/08 00:00:24;;;;;;;;;16.67;15.33;;;;;16.55;100.00;101432.75;5050229;28;45599;-83
2023/05/08 00:02:50;;;;;;;;;16.00;15.33;;;;;16.58;100.00;101441.72;5048745;28;48380;-84
2023/05/08 00:05:15;;;;;;;;;19.67;16.33;;;;;16.57;100.00;101434.53;5049307;28;45504;-83
2023/05/08 00:07:41;;;;;;;;;18.67;15.67;;;;;16.59;100.00;101448.84;5068092;28;45386;-83
2023/05/08 00:10:08;;;;;;;;;17.33;17.00;;;;;16.60;100.00;101453.34;5048640;28;45368;-84
2023/05/08 00:12:34;;;;;;;;;15.00;15.00;;;;;16.49;100.00;101441.69;5047741;28;48102;-83
2023/05/08 00:15:00;;;;;;;;;15.00;12.67;;;;;16.51;100.00;101461.38;5046866;28;45522;-83
2023/05/08 00:17:25;;;;;;;;;16.33;15.00;;;;;16.48;100.00;101450.66;5067267;28;45661;-83
2023/05/08 00:19:51;;;;;;;;;13.00;11.33;;;;;16.46;100.00;101457.81;5068732;28;45769;-83
2023/05/08 00:22:17;;;;;;;;;14.67;13.67;;;;;16.40;100.00;101453.31;5049894;28;47218;-84
2023/05/08 00:24:42;;;;;;;;;16.33;16.00;;;;;16.35;100.00;101451.50;5067578;28;45444;-83
2023/05/08 00:27:08;;;;;;;;;18.00;16.00;;;;;16.31;100.00;101444.34;5066376;28;45424;-83
2023/05/08 00:29:33;;;;;;;;;14.00;14.00;;;;;16.34;100.00;101442.56;5068377;28;45369;-84
2023/05/08 00:31:59;;;;;;;;;15.67;14.00;;;;;16.32;100.00;101435.38;5066966;28;45323;-84
2023/05/08 00:34:25;;;;;;;;;12.67;12.67;;;;;16.28;100.00;101441.66;5050476;28;45338;-83
2023/05/08 00:36:50;;;;;;;;;20.33;19.33;;;;;16.22;100.00;101441.63;5049022;28;45523;-84
2023/05/08 00:39:16;;;;;;;;;16.33;16.00;;;;;16.15;100.00;101438.06;5069005;28;45474;-83
2023/05/08 00:41:41;;;;;;;;;16.00;16.00;;;;;16.12;100.00;101441.63;5070193;28;45510;-84
2023/05/08 00:44:07;;;;;;;;;14.33;13.67;;;;;16.08;100.00;101442.53;5052292;28;45429;-84
2023/05/08 00:46:32;;;;;;;;;15.33;15.33;;;;;16.05;100.00;101434.44;5070186;28;45686;-84
2023/05/08 00:48:58;;;;;;;;;14.33;14.33;;;;;15.99;100.00;101439.78;5068286;28;45404;-84
2023/05/08 00:51:23;;;;;;;;;12.33;10.00;;;;;15.94;100.00;101438.91;5050826;28;47185;-84
2023/05/08 00:53:49;;;;;;;;;17.00;16.67;;;;;15.91;100.00;101439.78;5068326;28;45461;-83
2023/05/08 00:56:17;;;;;;;;;16.00;14.67;;;;;15.92;100.00;101430.84;5067461;28;45319;-83
2023/05/08 00:58:44;;;;;;;;;16.00;15.67;;;;;15.85;100.00;101428.13;5067609;28;45497;-83
2023/05/08 01:01:10;;;;;;;;;16.33;16.33;;;;;15.75;100.00;101416.47;5066816;28;46146;-84
2023/05/08 01:03:36;;;;;;;;;18.00;16.33;;;;;15.74;100.00;101428.09;5068077;28;45399;-83
2023/05/08 01:06:02;;;;;;;;;14.67;14.33;;;;;15.81;100.00;101429.91;5049752;28;45407;-83
2023/05/08 01:08:29;;;;;;;;;17.00;14.67;;;;;15.82;100.00;101429.03;5049210;28;45727;-83
2023/05/08 01:11:24;;;;;;;;;21.00;17.00;;;;;15.89;100.00;101421.88;5049664;28;47207;-84
2023/05/08 01:13:56;;;;;;;;;15.00;15.00;;;;;15.85;100.00;101426.34;5052401;28;46113;-84
2023/05/08 01:16:49;;;;;;;;;16.67;16.67;;;;;15.82;100.00;101433.50;5072679;28;45381;-83
2023/05/08 01:19:36;;;;;;;;;21.33;19.67;;;;;15.76;100.00;101437.06;5071723;28;45419;-83
2023/05/08 01:22:20;;;;;;;;;22.00;20.00;;;;;15.68;100.00;101439.66;5050574;28;48228;-84
2023/05/08 01:24:57;;;;;;;;;19.00;17.33;;;;;15.70;100.00;101445.94;5069436;28;45407;-84
2023/05/08 01:27:38;;;;;;;;;17.67;17.67;;;;;15.74;100.00;101442.41;5068571;28;44924;-84
2023/05/08 01:30:25;;;;;;;;;21.33;17.67;;;;;15.74;100.00;101433.47;5071346;28;45417;-84
2023/05/08 01:33:09;;;;;;;;;23.00;20.33;;;;;15.66;100.00;101440.56;5050322;28;48492;-84
2023/05/08 01:35:52;;;;;;;;;19.33;16.67;;;;;15.65;100.00;101438.75;5066514;28;45382;-84
2023/05/08 01:38:31;;;;;;;;;30.00;24.67;;;;;15.70;100.00;101435.19;5043419;28;45457;-84
2023/05/08 01:41:13;;;;;;;;;19.67;19.33;;;;;15.68;100.00;101434.31;5047730;28;45491;-84
2023/05/08 01:43:51;;;;;;;;;26.67;21.00;;;;;15.66;100.00;101436.06;5029005;28;46698;-83
2023/05/08 01:46:19;;;;;;;;;18.33;17.33;;;;;15.59;100.00;101429.81;5047650;28;45394;-83
2023/05/08 01:49:19;;;;;;;;;21.67;21.67;;;;;15.76;100.00;101443.31;5029603;28;45430;-84
2023/05/08 01:51:47;;;;;;;;;18.33;18.33;;;;;15.67;100.00;101440.53;5047083;28;45720;-84
2023/05/08 01:54:23;;;;;;;;;25.00;22.33;;;;;15.73;100.00;101437.91;5030241;28;47415;-83
2023/05/08 01:56:51;;;;;;;;;20.33;20.33;;;;;15.70;100.00;101437.00;5047422;28;45115;-83
2023/05/08 01:59:21;;;;;;;;;23.00;23.00;;;;;15.74;100.00;101446.88;5030923;28;44802;-83
2023/05/08 02:01:50;;;;;;;;;21.00;19.33;;;;;15.68;100.00;101445.03;5030912;28;45399;-83
2023/05/08 02:04:16;;;;;;;;;25.00;20.67;;;;;15.52;100.00;101440.47;5031171;28;47094;-84
2023/05/08 02:06:43;;;;;;;;;22.67;22.67;;;;;15.56;100.00;101451.22;5047310;28;44859;-83
2023/05/08 02:09:11;;;;;;;;;30.33;28.00;;;;;15.52;100.00;101448.53;5049431;28;45371;-83
2023/05/08 02:11:40;;;;;;;;;26.33;22.67;;;;;15.46;100.00;101454.75;5050078;28;45324;-83
2023/05/08 02:14:07;;;;;;;;;22.33;21.33;;;;;15.42;100.00;101460.97;5031526;28;48637;-83
2023/05/08 02:16:34;;;;;;;;;28.33;25.67;;;;;15.30;100.00;101459.13;5048383;28;45431;-83
2023/05/08 02:19:01;;;;;;;;;22.67;22.00;;;;;15.31;100.00;101455.56;5043804;28;45375;-83
2023/05/08 02:21:30;;;;;;;;;24.67;24.67;;;;;15.28;100.00;101447.50;5027910;28;45347;-83
2023/05/08 02:23:56;;;;;;;;;23.00;20.67;;;;;15.25;100.00;101466.25;5027864;28;48222;-83
2023/05/08 02:26:24;;;;;;;;;27.67;21.67;;;;;15.27;100.00;101461.78;5045267;28;45378;-83
2023/05/08 02:28:52;;;;;;;;;25.33;23.67;;;;;15.26;100.00;101451.94;5028572;28;44884;-84
2023/05/08 02:31:18;;;;;;;;;22.33;19.33;;;;;15.15;100.00;101464.41;5049216;28;45321;-84
2023/05/08 02:33:44;;;;;;;;;27.33;24.00;;;;;15.00;100.00;101466.06;5046207;28;46392;-83
2023/05/08 02:36:14;;;;;;;;;21.00;20.67;;;;;14.98;100.00;101466.94;5027885;28;45528;-83
2023/05/08 02:38:43;;;;;;;;;24.67;21.00;;;;;14.95;100.00;101459.78;5052153;28;45501;-83
2023/05/08 02:41:12;;;;;;;;;27.67;20.33;;;;;15.04;100.00;101471.44;5065660;28;45398;-83
2023/05/08 02:43:37;;;;;;;;;23.33;19.33;;;;;14.91;100.00;101460.66;5064827;28;45341;-84
2023/05/08 02:46:12;;;;;;;;;25.67;24.33;;;;;14.96;100.00;101466.91;5046344;28;45469;-83
2023/05/08 02:52:23;;;;;;;;;24.00;21.00;;;;;15.04;100.00;101456.25;5068681;28;45531;-83
2023/05/08 02:55:15;;;;;;;;;28.33;28.33;;;;;15.03;100.00;101454.50;5052109;28;47260;-83
2023/05/08 02:57:41;;;;;;;;;25.67;25.00;;;;;14.81;100.00;101448.06;5051702;28;45501;-83
2023/05/08 03:00:23;;;;;;;;;34.00;30.00;;;;;14.90;100.00;101453.47;5047106;28;45447;-83
2023/05/08 03:06:18;;;;;;;;;37.00;29.67;;;;;14.85;100.00;101451.69;5066709;28;44881;-84
2023/05/08 03:08:46;;;;;;;;;35.67;30.00;;;;;14.77;100.00;101451.59;5065116;28;45387;-84
2023/05/08 03:11:15;;;;;;;;;35.00;32.67;;;;;14.79;100.00;101449.84;5064865;28;45440;-83
2023/05/08 03:13:42;;;;;;;;;26.00;26.00;;;;;14.80;100.00;101448.94;5047705;28;45441;-83
2023/05/08 03:16:12;;;;;;;;;29.67;26.67;;;;;14.90;100.00;101437.41;5048893;28;47362;-84
2023/05/08 03:18:45;;;;;;;;;26.33;22.33;;;;;14.94;100.00;101433.88;5049609;28;45917;-84
2023/05/08 03:21:13;;;;;;;;;30.33;29.67;;;;;14.99;100.00;101431.25;5045759;28;45457;-83
2023/05/08 03:23:41;;;;;;;;;27.67;27.33;;;;;15.11;100.00;101435.78;5066950;28;45580;-83
2023/05/08 03:26:08;;;;;;;;;28.00;25.67;;;;;15.10;100.00;101450.06;5049693;28;48169;-83
2023/05/08 03:28:36;;;;;;;;;30.00;28.67;;;;;15.17;100.00;101452.78;5066260;28;45420;-84
2023/05/08 03:31:04;;;;;;;;;28.67;27.00;;;;;15.04;100.00;101434.84;5066532;28;45525;-83
2023/05/08 03:33:31;;;;;;;;;31.67;31.67;;;;;14.93;100.00;101447.28;5046638;28;45466;-83
2023/05/08 03:35:56;;;;;;;;;26.00;25.33;;;;;14.95;100.00;101451.75;5047192;28;46980;-83
2023/05/08 03:38:22;;;;;;;;;34.33;30.33;;;;;14.96;100.00;101448.16;5043536;28;45421;-84
2023/05/08 03:40:48;;;;;;;;;28.67;26.33;;;;;15.03;100.00;101449.13;5027836;28;45474;-84
2023/05/08 03:43:16;;;;;;;;;25.67;24.00;;;;;15.14;100.00;101449.19;5029715;28;45788;-84
2023/05/08 03:45:43;;;;;;;;;32.00;27.00;;;;;15.16;100.00;101442.06;5046262;28;45327;-84
2023/05/08 03:48:09;;;;;;;;;31.00;28.33;;;;;15.12;100.00;101448.28;5048139;28;45351;-84
2023/05/08 03:50:36;;;;;;;;;31.33;26.33;;;;;15.16;100.00;101442.06;5027005;28;45455;-84
2023/05/08 03:53:02;;;;;;;;;26.67;24.33;;;;;15.19;100.00;101444.78;5028447;28;45362;-84
2023/05/08 03:55:29;;;;;;;;;33.00;26.67;;;;;15.27;100.00;101442.13;5028426;28;47137;-84
2023/05/08 03:57:56;;;;;;;;;27.33;26.33;;;;;15.24;100.00;101443.00;5029571;28;45387;-84
2023/05/08 04:00:36;;;;;;;;;26.33;21.33;;;;;15.36;100.00;101443.06;5028369;28;45405;-84
2023/05/08 04:03:18;;;;;;;;;30.67;26.67;;;;;15.26;100.00;101446.59;5047699;28;45431;-84
2023/05/08 04:06:01;;;;;;;;;27.67;24.33;;;;;15.21;100.00;101437.66;5031939;28;47249;-84
2023/05/08 04:08:38;;;;;;;;;26.00;22.67;;;;;15.25;100.00;101442.13;5029059;28;45389;-84
2023/05/08 04:11:24;;;;;;;;;27.67;26.67;;;;;15.37;100.00;101444.88;5048409;27;45377;-84
2023/05/08 04:13:56;;;;;;;;;25.67;24.67;;;;;15.40;100.00;101438.63;5052265;28;45419;-84
2023/05/08 04:16:26;;;;;;;;;24.67;23.33;;;;;15.42;100.00;101438.66;5051485;28;46332;-84
2023/05/08 04:19:00;;;;;;;;;23.00;23.00;;;;;15.30;100.00;101434.13;5051663;28;45514;-84
2023/05/08 04:21:27;;;;;;;;;25.33;22.67;;;;;15.19;100.00;101434.06;5035345;28;45833;-84
2023/05/08 04:23:55;;;;;;;;;29.67;24.33;;;;;15.31;100.00;101438.56;5032063;28;45564;-84
2023/05/08 04:26:21;;;;;;;;;31.00;27.00;;;;;15.19;100.00;101434.06;5031005;28;47293;-84
2023/05/08 04:28:47;;;;;;;;;29.67;20.67;;;;;15.13;100.00;101431.34;5030960;28;45412;-84
2023/05/08 04:31:16;;;;;;;;;30.33;26.33;;;;;15.15;100.00;101434.94;5030353;28;45360;-84
2023/05/08 04:33:43;;;;;;;;;27.00;22.33;;;;;15.07;100.00;101432.19;5047892;28;45355;-84
2023/05/08 04:36:13;;;;;;;;;16.33;11.67;;;;;15.08;100.00;101427.72;5047576;28;45421;-84
2023/05/08 04:38:39;;;;;;;;;25.33;24.00;;;;;15.12;100.00;101437.56;5054709;28;45491;-84
2023/05/08 04:41:06;;;;;;;;;26.00;25.33;;;;;15.14;100.00;101433.13;5051645;28;45358;-84
2023/05/08 04:43:31;;;;;;;;;24.33;22.67;;;;;15.15;100.00;101426.88;5070485;28;45376;-84
2023/05/08 04:45:57;;;;;;;;;33.00;26.67;;;;;15.19;100.00;101434.94;5051288;28;46949;-84
2023/05/08 04:48:22;;;;;;;;;23.33;20.67;;;;;15.25;100.00;101428.72;5049644;28;46011;-83
2023/05/08 04:50:47;;;;;;;;;22.00;21.00;;;;;15.23;100.00;101425.16;5050290;28;45410;-84
2023/05/08 04:53:13;;;;;;;;;22.33;21.00;;;;;15.34;100.00;101436.81;5067336;28;45486;-84
2023/05/08 04:55:38;;;;;;;;;22.00;19.00;;;;;15.36;100.00;101443.06;5067305;28;45234;-83
2023/05/08 04:58:03;;;;;;;;;21.33;20.33;;;;;15.38;100.00;101441.28;5068978;28;45426;-84
2023/05/08 05:00:29;;;;;;;;;25.67;20.67;;;;;15.37;100.00;101439.53;5068374;28;45454;-84
2023/05/08 05:02:54;;;;;;;;;24.67;21.67;;;;;15.38;100.00;101449.34;5070878;28;44789;-84
2023/05/08 05:05:20;;;;;;;;;21.67;19.33;;;;;15.34;100.00;101452.88;5071916;28;45373;-83
2023/05/08 05:07:45;;;;;;;;;19.00;19.00;;;;;15.28;100.00;101450.16;5052340;28;46223;-84
2023/05/08 05:10:10;;;;;;;;;19.33;18.67;;;;;15.31;100.00;101450.22;5052713;28;45670;-84
2023/05/08 05:12:37;;;;;;;;;20.67;19.67;;;;;15.43;100.00;101453.81;5070958;28;45303;-84
2023/05/08 05:15:09;;;;;;;;;15.00;14.33;;;;;15.33;100.00;101461.84;5071213;28;46327;-84
2023/05/08 05:17:34;;;;;;;;;21.67;19.00;;;;;15.29;100.00;101468.06;5054801;28;44768;-83
2023/05/08 05:20:00;;;;;;;;;21.00;18.67;;;;;15.28;100.00;101476.09;5054016;28;45720;-84
2023/05/08 05:22:27;;;;;;;;;16.33;15.67;;;;;15.27;100.00;101474.28;5052557;28;45526;-83
2023/05/08 05:24:52;;;;;;;;;18.00;16.67;;;;;15.32;100.00;101470.75;5050663;28;47180;-83
2023/05/08 05:27:19;;;;;;;;;16.33;13.67;;;;;15.41;100.00;101467.22;5052950;28;45123;-83
2023/05/08 05:29:45;;;;;;;;;19.00;19.00;;;;;15.42;100.00;101478.84;5051987;28;45414;-83
2023/05/08 05:32:11;;;;;;;;;20.00;15.67;;;;;15.30;100.00;101485.03;5070992;28;45411;-83
2023/05/08 05:34:36;;;;;;;;;18.00;16.00;;;;;15.25;100.00;101482.31;5069795;28;45985;-84
2023/05/08 05:37:08;;;;;;;;;13.00;12.67;;;;;15.46;100.00;101488.72;5068958;28;45444;-84
2023/05/08 05:39:35;;;;;;;;;9.00;6.33;;;;;15.34;100.00;101478.81;5039490;28;45427;-83
2023/05/08 05:42:00;;;;;;;;;20.33;14.67;;;;;15.37;100.00;101477.03;5031672;28;45457;-84
2023/05/08 05:44:26;;;;;;;;;14.00;13.33;;;;;15.40;100.00;101486.88;5029572;28;47018;-83
2023/05/08 05:46:51;;;;;;;;;18.00;15.33;;;;;15.35;100.00;101488.63;5011989;28;45492;-83
2023/05/08 05:49:18;;;;;;;;;18.00;16.00;;;;;15.43;100.00;101503.00;5029307;28;45588;-83
2023/05/08 05:51:43;;;;;;;;;16.67;14.00;;;;;15.34;100.00;101502.91;5030034;28;45451;-84
2023/05/08 05:54:08;;;;;;;;;10.00;10.00;;;;;15.39;100.00;101502.06;5028341;28;48113;-83
2023/05/08 05:56:34;;;;;;;;;13.00;12.00;;;;;15.39;100.00;101501.16;5028899;28;47736;-83
2023/05/08 05:58:59;;;;;;;;;15.67;13.00;;;;;15.43;100.00;101507.44;5030412;28;46342;-83
2023/05/08 06:01:27;;;;;;;;;14.33;14.00;;;;;15.42;100.00;101513.69;5047553;28;45342;-83
2023/05/08 06:03:53;;;;;;;;;15.67;14.33;;;;;15.33;100.00;101503.78;5031216;28;47105;-84
2023/05/08 06:06:18;;;;;;;;;14.00;13.33;;;;;15.44;100.00;101517.28;5031303;28;45718;-83
2023/05/08 06:08:43;;;;;;;;;12.00;12.00;;;;;15.46;100.00;101515.50;5048346;28;45382;-83
2023/05/08 06:11:09;;;;;;;;;13.33;12.67;;;;;15.50;100.00;101525.38;5029421;28;45350;-83
2023/05/08 06:13:34;;;;;;;;;13.33;12.33;;;;;15.55;100.00;101519.16;5030342;28;47912;-84
2023/05/08 06:16:00;;;;;;;;;17.67;14.00;;;;;15.66;100.00;101529.94;5047202;28;45327;-84
2023/05/08 06:18:25;;;;;;;;;11.33;9.33;;;;;15.72;100.00;101527.31;5030565;28;45749;-84
2023/05/08 06:20:56;;;;;;;;;17.33;16.67;;;;;15.85;100.00;101527.38;5030120;28;45521;-84
2023/05/08 06:23:22;;;;;;;;;12.67;12.00;;;;;15.76;100.00;101521.06;5031551;28;46918;-83
2023/05/08 06:25:48;;;;;;;;;18.67;13.67;;;;;15.82;100.00;101524.69;5048959;28;45308;-84
2023/05/08 06:28:13;;;;;;;;;18.33;15.33;;;;;15.73;100.00;101523.72;5032746;28;45506;-84
2023/05/08 06:30:38;;;;;;;;;16.33;16.00;;;;;15.72;100.00;101527.31;5033395;28;45644;-84
2023/05/08 06:33:04;;;;;;;;;16.67;13.00;;;;;15.80;100.00;101532.72;5050275;28;45413;-84
2023/05/08 06:35:29;;;;;;;;;14.67;14.00;;;;;15.89;100.00;101532.75;5050787;28;45435;-84
2023/05/08 06:37:54;;;;;;;;;20.00;18.33;;;;;15.95;100.00;101530.09;5048215;28;45468;-83
2023/05/08 06:40:20;;;;;;;;;18.00;15.00;;;;;16.01;100.00;101523.88;5049340;28;45444;-84
2023/05/08 06:42:46;;;;;;;;;19.00;18.00;;;;;16.02;100.00;101531.03;5068904;28;45559;-84
2023/05/08 06:45:11;;;;;;;;;20.67;19.33;;;;;15.96;100.00;101521.19;5054107;28;45774;-84
2023/05/08 06:47:37;;;;;;;;;14.33;14.33;;;;;15.96;100.00;101525.66;5072410;28;44757;-84
2023/05/08 06:50:03;;;;;;;;;21.33;17.33;;;;;15.96;100.00;101525.66;5052904;28;45550;-84
2023/05/08 06:52:28;;;;;;;;;12.33;12.33;;;;;15.91;100.00;101524.72;5068406;28;45922;-84
2023/05/08 06:54:54;;;;;;;;;11.00;10.67;;;;;15.95;100.00;101526.53;5069154;28;45315;-84
2023/05/08 06:57:19;;;;;;;;;20.00;19.00;;;;;15.89;100.00;101531.88;5069029;28;45419;-84
2023/05/08 06:59:44;;;;;;;;;18.00;15.00;;;;;15.86;100.00;101534.56;5052137;28;45604;-84
2023/05/08 07:02:11;;;;;;;;;14.00;12.33;;;;;15.88;100.00;101530.97;5069711;28;46033;-84
2023/05/08 07:04:37;;;;;;;;;20.33;16.00;;;;;15.93;100.00;101539.03;5050672;28;45471;-84
2023/05/08 07:07:02;;;;;;;;;18.00;15.67;;;;;16.03;100.00;101548.03;5049294;28;45457;-84
2023/05/08 07:09:28;;;;;;;;;20.67;16.00;;;;;15.96;100.00;101539.97;5052375;28;45417;-84
2023/05/08 07:11:53;;;;;;;;;14.33;14.33;;;;;15.98;100.00;101550.69;5048651;28;47635;-84
2023/05/08 07:14:19;;;;;;;;;21.00;18.50;;;;;16.04;100.00;101544.44;5065780;28;45431;-84
2023/05/08 07:16:44;;;;;;;;;16.67;13.00;;;;;16.11;100.00;101547.16;5049234;28;45350;-84
2023/05/08 07:19:10;;;;;;;;;17.00;13.33;;;;;16.25;100.00;101538.28;5049072;28;45436;-84
2023/05/08 07:21:35;;;;;;;;;20.33;18.67;;;;;16.48;100.00;101552.69;5048260;28;47058;-84
2023/05/08 07:24:00;;;;;;;;;21.00;19.67;;;;;16.69;100.00;101556.31;5048790;28;45463;-84
2023/05/08 07:26:26;;;;;;;;;16.33;16.33;;;;;16.81;100.00;101556.34;5066543;28;45511;-84
2023/05/08 07:28:53;;;;;;;;;19.33;17.33;;;;;16.93;100.00;101556.38;5048434;28;45382;-84
2023/05/08 07:31:19;;;;;;;;;16.00;15.67;;;;;16.89;100.00;101559.06;5047089;28;48388;-84
2023/05/08 07:33:45;;;;;;;;;19.67;18.67;;;;;16.89;100.00;101561.75;5065892;28;45435;-84
2023/05/08 07:36:11;;;;;;;;;11.00;11.00;;;;;16.98;100.00;101557.25;5065966;28;45389;-84
2023/05/08 07:38:36;;;;;;;;;21.67;16.33;;;;;17.11;100.00;101559.97;5048760;28;45397;-84
2023/05/08 07:41:04;;;;;;;;;14.00;13.33;;;;;17.33;100.00;101566.22;5046752;28;46955;-84
2023/05/08 07:43:30;;;;;;;;;20.00;15.00;;;;;17.32;100.00;101559.06;5047167;28;45629;-84
2023/05/08 07:45:56;;;;;;;;;15.33;15.33;;;;;17.34;100.00;101558.16;5065079;28;45781;-84
2023/05/08 07:48:21;;;;;;;;;14.33;14.00;;;;;17.40;100.00;101558.16;5049092;28;45421;-84
2023/05/08 07:50:49;;;;;;;;;13.67;12.00;;;;;17.56;100.00;101564.41;5068404;28;45183;-84
2023/05/08 07:53:17;;;;;;;;;16.33;14.67;;;;;17.69;100.00;101570.63;5050849;28;45895;-84
2023/05/08 07:55:42;;;;;;;;;17.33;15.67;;;;;17.54;100.00;101568.00;5070116;28;45351;-84
2023/05/08 07:58:08;;;;;;;;;16.33;14.00;;;;;17.47;100.00;101571.59;5067036;28;45466;-84
2023/05/08 08:00:33;;;;;;;;;14.67;14.00;;;;;17.45;100.00;101574.31;5066262;28;45566;-84
2023/05/08 08:02:59;;;;;;;;;13.00;13.00;;;;;17.46;100.00;101577.88;5067608;28;44755;-84
2023/05/08 08:05:24;;;;;;;;;12.67;12.67;;;;;17.33;100.00;101567.13;5047294;28;46127;-84
2023/05/08 08:07:50;;;;;;;;;14.33;13.00;;;;;17.34;100.00;101574.28;5066754;28;45492;-84
2023/05/08 08:10:15;;;;;;;;;16.00;14.00;;;;;17.44;100.00;101576.97;5048991;28;48171;-84
2023/05/08 08:12:41;;;;;;;;;12.33;11.33;;;;;17.52;100.00;101583.25;5066572;28;45403;-84
2023/05/08 08:15:07;;;;;;;;;12.67;12.67;;;;;17.61;100.00;101585.91;5049425;28;45898;-84
2023/05/08 08:17:32;;;;;;;;;13.00;11.33;;;;;17.70;100.00;101585.91;5066185;28;45426;-84
2023/05/08 08:19:58;;;;;;;;;13.00;12.00;;;;;17.87;100.00;101580.50;5048697;28;47798;-84
2023/05/08 08:22:24;;;;;;;;;12.67;12.67;;;;;17.93;100.00;101584.97;5067407;28;45441;-85
2023/05/08 08:28:12;;;;;;;;;11.33;8.33;;;;;18.09;100.00;101575.94;5067401;28;45552;-85
2023/05/08 08:30:37;;;;;;;;;14.00;12.00;;;;;18.27;100.00;101568.72;5048914;28;46881;-85
2023/05/08 08:33:04;;;;;;;;;13.33;12.00;;;;;18.41;100.00;101572.22;5067164;28;45777;-85
2023/05/08 08:35:31;;;;;;;;;13.67;13.33;;;;;18.63;100.00;101575.72;5067982;28;45442;-85
2023/05/08 08:38:04;;;;;;;;;15.33;14.33;;;;;18.89;100.00;101578.28;5047937;28;44813;-85
2023/05/08 08:40:30;;;;;;;;;14.67;14.33;;;;;18.83;100.00;101578.31;5047073;28;48294;-85
2023/05/08 08:42:55;;;;;;;;;15.00;15.00;;;;;18.82;100.00;101572.94;5064672;28;45398;-85
2023/05/08 08:45:21;;;;;;;;;12.33;12.33;;;;;18.85;100.00;101576.50;5064517;28;45856;-84
2023/05/08 08:47:47;;;;;;;;;14.67;13.67;;;;;18.94;100.00;101589.00;5064604;28;45744;-85
2023/05/08 08:50:14;;;;;;;;;14.00;14.00;;;;;18.97;100.00;101589.00;5051087;27;46873;-85
2023/05/08 08:52:50;;;;;;;;;12.33;12.33;;;;;19.03;100.00;101585.34;5050050;28;44915;-85
2023/05/08 08:55:20;;;;;;;;;12.67;11.33;;;;;19.02;100.00;101594.34;5050089;28;45495;-85
2023/05/08 08:58:26;;;;;;;;;13.67;12.00;;;;;18.99;100.00;101593.47;5066218;28;45472;-85
2023/05/08 09:00:54;;;;;;;;;13.00;11.00;;;;;18.96;100.00;101588.09;5049371;28;47283;-85
2023/05/08 09:03:20;;;;;;;;;13.33;11.33;;;;;18.88;100.00;101589.06;5050461;28;45535;-85
2023/05/08 09:05:48;;;;;;;;;18.67;16.00;;;;;18.74;100.00;101589.09;5068322;28;45831;-85
2023/05/08 09:08:15;;;;;;;;;13.67;11.00;;;;;18.69;100.00;101594.53;5050501;28;45437;-85
2023/05/08 09:10:40;;;;;;;;;13.33;13.33;;;;;18.61;100.00;101596.38;5049518;28;46967;-85
2023/05/08 09:13:06;;;;;;;;;10.67;10.67;;;;;18.63;100.00;101596.38;5065698;28;45419;-85
2023/05/08 09:15:32;;;;;;;;;10.67;10.00;;;;;18.58;100.00;101594.59;5048421;28;45465;-85
2023/05/08 09:18:00;;;;;;;;;13.00;12.67;;;;;18.54;100.00;101594.59;5068811;28;45223;-85
2023/05/08 09:20:27;;;;;;;;;13.67;13.67;;;;;18.42;100.00;101584.81;5050167;28;47611;-85
2023/05/08 09:22:53;;;;;;;;;15.00;15.00;;;;;18.44;100.00;101584.78;5048550;28;45808;-83
2023/05/08 09:25:18;;;;;;;;;10.67;9.00;;;;;18.41;100.00;101576.72;5066959;28;45414;-83
2023/05/08 09:27:44;;;;;;;;;14.67;13.67;;;;;18.59;100.00;101599.06;5066302;28;45418;-83
2023/05/08 09:30:11;;;;;;;;;13.00;13.00;;;;;18.73;100.00;101590.03;5048351;28;47168;-83
2023/05/08 09:32:39;;;;;;;;;13.00;13.00;;;;;18.87;100.00;101582.78;5048193;28;45414;-83
2023/05/08 09:35:06;;;;;;;;;16.00;15.00;;;;;19.08;100.00;101583.53;5067330;28;44844;-84
2023/05/08 09:37:32;;;;;;;;;17.00;14.00;;;;;19.34;100.00;101580.63;5048644;28;45486;-84
2023/05/08 09:40:21;;;;;;;;;14.00;12.00;;;;;19.71;100.00;101566.78;5049027;28;46876;-83
2023/05/08 09:42:48;;;;;;;;;11.67;11.00;;;;;19.84;100.00;101563.06;5049271;28;45633;-84
2023/05/08 09:45:27;;;;;;;;;11.33;11.00;;;;;20.44;100.00;101564.13;5048293;28;45447;-83
2023/05/08 09:47:53;;;;;;;;;17.00;13.00;;;;;20.61;100.00;101562.13;5066784;28;45380;-84
2023/05/08 09:50:18;;;;;;;;;8.67;8.00;;;;;20.78;100.00;101559.16;5064287;28;45517;-83
2023/05/08 09:52:46;;;;;;;;;14.00;12.00;;;;;20.91;100.00;101563.47;5067548;28;45397;-83
2023/05/08 09:55:12;;;;;;;;;13.00;10.33;;;;;20.82;100.00;101550.06;5068718;27;45305;-83
2023/05/08 09:57:40;;;;;;;;;15.00;12.00;;;;;20.83;100.00;101549.16;5068878;28;45375;-84
2023/05/08 10:00:49;;;;;;;;;13.67;12.67;;;;;20.81;100.00;101547.41;5050011;28;48160;-83
2023/05/08 10:03:14;;;;;;;;;11.67;10.33;;;;;20.50;100.00;101546.03;5068190;28;45417;-84
2023/05/08 10:05:39;;;;;;;;;14.33;12.33;;;;;20.33;95.33;101534.53;5068173;28;45433;-84
2023/05/08 10:08:19;;;;;;;;;13.00;10.33;;;;;20.37;100.00;101541.69;5068859;28;45429;-84
2023/05/08 10:10:45;;;;;;;;;9.33;9.33;;;;;20.19;100.00;101542.84;5048985;28;48002;-84
2023/05/08 10:13:10;;;;;;;;;8.00;8.00;;;;;20.13;92.97;101538.41;5048706;28;45516;-83
2023/05/08 10:15:40;;;;;;;;;13.00;11.67;;;;;20.15;96.10;101536.56;5069231;28;45360;-85
2023/05/08 10:18:07;;;;;;;;;12.67;8.00;;;;;20.12;100.00;101528.53;5050666;28;45454;-84
2023/05/08 10:20:38;;;;;;;;;7.00;5.33;;;;;20.38;100.00;101530.00;5068541;28;46689;-84
2023/05/08 10:23:10;;;;;;;;;8.33;8.33;;;;;20.50;100.00;101540.63;5032548;28;45435;-84
2023/05/08 10:25:41;;;;;;;;;9.67;7.67;;;;;20.78;100.00;101524.00;5049668;28;45735;-84
2023/05/08 10:28:36;;;;;;;;;12.33;9.67;;;;;21.21;100.00;101525.09;5068340;28;45362;-84
2023/05/08 10:31:04;;;;;;;;;12.33;10.00;;;;;21.45;92.57;101513.88;5045147;28;48350;-84
2023/05/08 10:33:30;;;;;;;;;9.33;6.67;;;;;21.53;98.84;101511.00;5048532;28;46036;-84
2023/05/08 10:35:56;;;;;;;;;8.00;8.00;;;;;21.63;92.15;101517.16;5049062;28;45410;-84
2023/05/08 10:38:23;;;;;;;;;15.00;12.00;;;;;21.75;100.00;101509.69;5049370;28;45524;-84
2023/05/08 10:40:51;;;;;;;;;8.33;7.00;;;;;21.97;100.00;101506.53;5050048;28;47121;-84
2023/05/08 10:43:18;;;;;;;;;9.67;8.67;;;;;22.15;97.09;101510.66;5068066;28;44737;-84
2023/05/08 10:45:44;;;;;;;;;10.00;8.00;;;;;22.25;100.00;101508.69;5070204;27;45372;-84
2023/05/08 10:48:21;;;;;;;;;9.33;8.00;;;;;22.31;86.33;101511.25;5051658;28;45333;-84
2023/05/08 10:50:46;;;;;;;;;11.00;11.00;;;;;22.22;94.48;101511.41;5050116;28;48110;-84
2023/05/08 10:53:21;;;;;;;;;10.00;8.00;;;;;22.38;92.62;101510.19;5068073;28;45421;-84
2023/05/08 10:55:50;;;;;;;;;8.67;8.00;;;;;22.43;96.72;101510.97;5051799;28;45358;-84
2023/05/08 10:58:39;;;;;;;;;9.33;8.67;;;;;22.63;96.04;101499.66;5067950;28;45513;-84
2023/05/08 11:01:12;;;;;;;;;7.33;6.00;;;;;22.81;95.06;101490.19;5050160;28;47206;-85
2023/05/08 11:03:43;;;;;;;;;8.33;8.33;;;;;22.97;94.28;101486.16;5068575;28;45454;-85
2023/05/08 11:06:09;;;;;;;;;8.00;7.33;;;;;22.94;80.90;101485.34;5050453;28;45429;-85
2023/05/08 11:08:45;;;;;;;;;8.67;7.67;;;;;23.10;90.17;101478.59;5048703;28;45434;-85
2023/05/08 11:11:25;;;;;;;;;9.00;8.33;;;;;23.14;89.63;101476.72;5048800;28;48168;-85
2023/05/08 11:14:06;;;;;;;;;8.33;8.33;;;;;23.20;91.40;101470.25;5069299;28;45591;-85
2023/05/08 11:16:59;;;;;;;;;9.00;7.00;;;;;23.41;91.13;101466.03;5050838;28;45370;-85
2023/05/08 11:19:26;;;;;;;;;7.67;7.00;;;;;23.38;89.18;101460.72;5068855;28;45399;-85
2023/05/08 11:22:23;;;;;;;;;7.00;6.00;;;;;23.70;92.45;101460.66;5051581;28;47022;-85